createdAt,value
2018-05-13T00:00:36.308Z,0.00
2018-05-13T00:01:36.299Z,0.00
2018-05-13T00:02:36.297Z,0.00
2018-05-13T00:03:36.292Z,0.00
2018-05-13T00:04:36.302Z,0.00
2018-05-13T00:05:36.294Z,0.00
2018-05-13T00:06:36.282Z,0.00
2018-05-13T00:07:36.276Z,0.00
2018-05-13T00:08:36.273Z,0.00
2018-05-13T00:09:36.263Z,0.00
2018-05-13T00:10:36.263Z,0.00
2018-05-13T00:11:36.255Z,0.00
2018-05-13T00:12:36.248Z,0.00
2018-05-13T00:13:36.252Z,0.00
2018-05-13T00:14:36.240Z,0.00
2018-05-13T00:15:36.236Z,0.00
2018-05-13T00:16:36.229Z,0.00
2018-05-13T00:17:36.229Z,0.00
2018-05-13T00:18:39.079Z,0.00
2018-05-13T00:19:36.222Z,0.00
2018-05-13T00:20:36.209Z,0.00
2018-05-13T00:21:36.207Z,0.00
2018-05-13T00:22:36.207Z,0.00
2018-05-13T00:23:36.201Z,0.00
2018-05-13T00:24:36.196Z,0.00
2018-05-13T00:25:36.192Z,0.00
2018-05-13T00:26:36.210Z,0.00
2018-05-13T00:27:36.207Z,0.00
2018-05-13T00:28:36.178Z,0.00
2018-05-13T00:29:36.168Z,0.00
2018-05-13T00:30:36.164Z,0.00
2018-05-13T00:31:36.178Z,0.00
2018-05-13T00:32:36.157Z,0.00
2018-05-13T00:33:36.192Z,0.00
2018-05-13T00:34:36.147Z,0.00
2018-05-13T00:35:36.143Z,0.00
2018-05-13T00:36:36.140Z,0.00
2018-05-13T00:37:36.129Z,0.00
2018-05-13T00:38:36.131Z,0.00
2018-05-13T00:39:36.123Z,0.00
2018-05-13T00:40:36.120Z,0.00
2018-05-13T00:41:36.112Z,0.00
2018-05-13T00:42:36.112Z,0.00
2018-05-13T00:43:36.111Z,0.00
2018-05-13T00:44:36.105Z,0.00
2018-05-13T00:45:36.099Z,0.00
2018-05-13T00:46:36.085Z,0.00
2018-05-13T00:47:36.082Z,0.00
2018-05-13T00:48:36.082Z,0.00
2018-05-13T00:49:36.072Z,0.00
2018-05-13T00:50:36.087Z,0.00
2018-05-13T00:51:36.070Z,0.00
2018-05-13T00:52:36.063Z,0.00
2018-05-13T00:53:36.057Z,0.00
2018-05-13T00:54:36.054Z,0.00
2018-05-13T00:55:36.046Z,0.00
2018-05-13T00:56:36.042Z,0.00
2018-05-13T00:57:36.054Z,0.00
2018-05-13T00:58:36.033Z,0.00
2018-05-13T00:59:36.037Z,0.00
2018-05-13T01:00:36.021Z,0.00
2018-05-13T01:01:36.023Z,0.00
2018-05-13T01:02:36.016Z,0.00
2018-05-13T01:03:36.010Z,0.00
2018-05-13T01:04:35.997Z,0.00
2018-05-13T01:05:35.993Z,0.00
2018-05-13T01:06:36.012Z,0.00
2018-05-13T01:07:35.989Z,0.00
2018-05-13T01:08:35.981Z,0.00
2018-05-13T01:09:35.978Z,0.00
2018-05-13T01:10:35.969Z,0.00
2018-05-13T01:11:35.970Z,0.00
2018-05-13T01:12:35.962Z,0.00
2018-05-13T01:13:35.956Z,0.00
2018-05-13T01:14:35.952Z,0.00
2018-05-13T01:15:35.954Z,0.00
2018-05-13T01:16:35.946Z,0.00
2018-05-13T01:17:35.941Z,0.00
2018-05-13T01:18:35.982Z,0.00
2018-05-13T01:19:35.928Z,0.00
2018-05-13T01:20:35.926Z,0.00
2018-05-13T01:21:35.919Z,0.00
2018-05-13T01:22:35.915Z,0.00
2018-05-13T01:23:35.908Z,0.00
2018-05-13T01:24:35.900Z,0.00
2018-05-13T01:25:35.896Z,0.00
2018-05-13T01:26:35.896Z,0.00
2018-05-13T01:27:35.889Z,0.00
2018-05-13T01:28:35.889Z,0.00
2018-05-13T01:29:35.877Z,0.00
2018-05-13T01:30:35.876Z,0.00
2018-05-13T01:31:35.876Z,0.00
2018-05-13T01:32:35.874Z,0.00
2018-05-13T01:33:35.894Z,0.00
2018-05-13T01:34:35.858Z,0.00
2018-05-13T01:35:35.854Z,0.00
2018-05-13T01:36:35.847Z,0.00
2018-05-13T01:37:35.846Z,0.00
2018-05-13T01:38:35.835Z,0.00
2018-05-13T01:39:35.831Z,0.00
2018-05-13T01:40:35.823Z,0.00
2018-05-13T01:41:35.826Z,0.00
2018-05-13T01:42:35.819Z,0.00
2018-05-13T01:43:35.809Z,0.00
2018-05-13T01:44:35.807Z,0.00
2018-05-13T01:45:35.804Z,0.00
2018-05-13T01:46:35.796Z,0.00
2018-05-13T01:47:35.794Z,0.00
2018-05-13T01:48:35.787Z,0.00
2018-05-13T01:49:35.783Z,0.00
2018-05-13T01:50:35.775Z,0.00
2018-05-13T01:51:35.771Z,0.00
2018-05-13T01:52:35.774Z,0.00
2018-05-13T01:53:35.767Z,0.00
2018-05-13T01:54:35.757Z,0.00
2018-05-13T01:55:35.758Z,0.00
2018-05-13T01:56:35.748Z,0.00
2018-05-13T01:57:35.742Z,0.00
2018-05-13T01:58:35.735Z,0.00
2018-05-13T01:59:35.737Z,0.00
2018-05-13T02:00:35.732Z,0.00
2018-05-13T02:01:35.724Z,0.00
2018-05-13T02:02:35.717Z,0.00
2018-05-13T02:03:35.711Z,0.00
2018-05-13T02:04:35.709Z,0.00
2018-05-13T02:05:35.710Z,0.00
2018-05-13T02:06:35.697Z,0.00
2018-05-13T02:07:35.693Z,0.00
2018-05-13T02:08:35.691Z,0.00
2018-05-13T02:09:35.685Z,0.00
2018-05-13T02:10:35.675Z,0.00
2018-05-13T02:11:35.675Z,0.00
2018-05-13T02:12:35.673Z,0.00
2018-05-13T02:13:35.660Z,0.00
2018-05-13T02:14:35.680Z,0.00
2018-05-13T02:15:35.658Z,0.00
2018-05-13T02:16:35.646Z,0.00
2018-05-13T02:17:35.644Z,0.00
2018-05-13T02:18:35.632Z,0.00
2018-05-13T02:19:35.633Z,0.00
2018-05-13T02:20:35.630Z,0.00
2018-05-13T02:21:35.622Z,0.00
2018-05-13T02:22:35.619Z,0.00
2018-05-13T02:23:35.611Z,0.00
2018-05-13T02:24:35.604Z,0.00
2018-05-13T02:25:35.603Z,0.00
2018-05-13T02:26:35.595Z,0.00
2018-05-13T02:27:35.601Z,0.00
2018-05-13T02:28:35.587Z,0.00
2018-05-13T02:29:35.583Z,0.00
2018-05-13T02:30:35.596Z,0.00
2018-05-13T02:31:35.579Z,0.00
2018-05-13T02:32:35.569Z,0.00
2018-05-13T02:33:35.567Z,0.00
2018-05-13T02:34:35.557Z,0.00
2018-05-13T02:35:35.556Z,0.00
2018-05-13T02:36:35.548Z,0.00
2018-05-13T02:37:35.545Z,0.00
2018-05-13T02:38:35.552Z,0.00
2018-05-13T02:39:35.533Z,0.00
2018-05-13T02:40:35.571Z,0.00
2018-05-13T02:41:35.523Z,0.00
2018-05-13T02:42:35.514Z,0.00
2018-05-13T02:43:35.517Z,0.00
2018-05-13T02:44:35.509Z,0.00
2018-05-13T02:45:35.502Z,0.00
2018-05-13T02:46:35.491Z,0.00
2018-05-13T02:47:35.509Z,0.00
2018-05-13T02:48:35.488Z,0.00
2018-05-13T02:49:35.480Z,0.00
2018-05-13T02:50:35.479Z,0.00
2018-05-13T02:51:35.471Z,0.00
2018-05-13T02:52:35.467Z,0.00
2018-05-13T02:53:35.456Z,0.00
2018-05-13T02:54:35.454Z,0.00
2018-05-13T02:55:35.457Z,0.00
2018-05-13T02:56:35.442Z,0.00
2018-05-13T02:57:35.451Z,0.00
2018-05-13T02:58:35.457Z,0.00
2018-05-13T02:59:35.432Z,0.00
2018-05-13T03:00:35.426Z,0.00
2018-05-13T03:01:35.420Z,0.00
2018-05-13T03:02:35.417Z,0.00
2018-05-13T03:03:35.414Z,0.00
2018-05-13T03:04:35.411Z,0.00
2018-05-13T03:05:35.398Z,4.00
2018-05-13T03:06:35.392Z,0.00
2018-05-13T03:07:37.160Z,0.00
2018-05-13T03:08:35.382Z,4.00
2018-05-13T03:09:56.413Z,4.00
2018-05-13T03:10:35.377Z,0.00
2018-05-13T03:22:46.168Z,12.00
2018-05-13T03:23:23.062Z,12.00
2018-05-13T03:34:52.137Z,52.00
2018-05-13T03:36:30.726Z,56.00
2018-05-13T03:37:24.396Z,64.00
2018-05-13T03:39:17.866Z,68.00
2018-05-13T03:40:17.862Z,68.00
2018-05-13T03:42:11.519Z,72.00
2018-05-13T03:43:11.433Z,72.00
2018-05-13T03:45:05.170Z,72.00
2018-05-13T03:46:05.105Z,76.00
2018-05-13T03:47:58.825Z,80.00
2018-05-13T03:48:58.680Z,80.00
2018-05-13T03:50:52.401Z,96.00
2018-05-13T03:51:52.365Z,112.00
2018-05-13T03:53:46.117Z,140.00
2018-05-13T03:54:46.081Z,148.00
2018-05-13T03:56:40.012Z,148.00
2018-05-13T03:57:39.708Z,152.00
2018-05-13T03:59:33.300Z,160.00
2018-05-13T04:00:33.259Z,176.00
2018-05-13T04:02:27.135Z,208.00
2018-05-13T04:03:27.092Z,232.00
2018-05-13T04:05:20.769Z,284.00
2018-05-13T04:06:20.669Z,312.00
2018-05-13T04:08:14.850Z,348.00
2018-05-13T04:09:14.344Z,364.00
2018-05-13T04:11:09.284Z,384.00
2018-05-13T04:12:07.969Z,388.00
2018-05-13T04:13:08.292Z,372.00
2018-05-13T04:14:07.901Z,356.00
2018-05-13T04:15:07.926Z,340.00
2018-05-13T04:16:07.882Z,324.00
2018-05-13T04:17:08.854Z,296.00
2018-05-13T04:18:08.759Z,280.00
2018-05-13T04:19:10.729Z,276.00
2018-05-13T04:20:07.873Z,272.00
2018-05-13T04:21:07.976Z,268.00
2018-05-13T04:22:07.901Z,272.00
2018-05-13T04:23:07.872Z,276.00
2018-05-13T04:24:07.848Z,284.00
2018-05-13T04:25:07.830Z,296.00
2018-05-13T04:26:07.834Z,304.00
2018-05-13T04:27:07.836Z,312.00
2018-05-13T04:28:07.825Z,320.00
2018-05-13T04:29:07.817Z,336.00
2018-05-13T04:30:07.839Z,356.00
2018-05-13T04:31:07.944Z,372.00
2018-05-13T04:32:08.089Z,400.00
2018-05-13T04:33:09.103Z,412.00
2018-05-13T04:34:08.179Z,416.00
2018-05-13T04:35:10.009Z,408.00
2018-05-13T04:36:12.200Z,404.00
2018-05-13T04:37:09.786Z,408.00
2018-05-13T04:38:07.876Z,408.00
2018-05-13T04:39:07.781Z,400.00
2018-05-13T04:40:08.902Z,400.00
2018-05-13T04:41:08.061Z,396.00
2018-05-13T04:42:10.257Z,412.00
2018-05-13T04:43:09.469Z,444.00
2018-05-13T05:56:59.869Z,7904.00
2018-05-13T05:57:35.036Z,7844.00
2018-05-13T06:01:05.770Z,8808.00
2018-05-13T06:02:01.067Z,9276.00
2018-05-13T06:05:27.165Z,10992.00
2018-05-13T06:06:27.024Z,11180.00
2018-05-13T06:10:11.487Z,10948.00
2018-05-13T06:10:53.079Z,10656.00
2018-05-13T06:13:46.682Z,9992.00
2018-05-13T06:15:42.215Z,9004.00
2018-05-13T06:16:40.315Z,8784.00
2018-05-13T06:17:40.309Z,8768.00
2018-05-13T06:18:40.467Z,9108.00
2018-05-13T06:19:40.298Z,9268.00
2018-05-13T06:20:51.078Z,9508.00
2018-05-13T06:21:40.262Z,9972.00
2018-05-13T06:22:40.260Z,11376.00
2018-05-13T06:23:40.261Z,10848.00
2018-05-13T06:24:40.280Z,10740.00
2018-05-13T06:25:40.250Z,12952.00
2018-05-13T06:26:40.246Z,15040.00
2018-05-13T06:27:40.245Z,16224.00
2018-05-13T06:28:40.240Z,16928.00
2018-05-13T06:29:40.233Z,18272.00
2018-05-13T06:30:41.073Z,18880.00
2018-05-13T06:31:40.232Z,19072.00
2018-05-13T06:32:40.229Z,18656.00
2018-05-13T06:33:40.227Z,19040.00
2018-05-13T06:34:40.244Z,16768.00
2018-05-13T06:35:40.218Z,17920.00
2018-05-13T06:36:40.224Z,16064.00
2018-05-13T06:37:40.227Z,15648.00
2018-05-13T06:38:40.224Z,15872.00
2018-05-13T06:39:40.264Z,17984.00
2018-05-13T06:40:40.211Z,19648.00
2018-05-13T06:41:40.207Z,19904.00
2018-05-13T06:42:40.200Z,19488.00
2018-05-13T06:43:40.201Z,20576.00
2018-05-13T06:44:40.207Z,20448.00
2018-05-13T06:45:40.196Z,20672.00
2018-05-13T06:46:40.196Z,20896.00
2018-05-13T06:47:40.197Z,21248.00
2018-05-13T06:48:40.206Z,16160.00
2018-05-13T06:49:40.202Z,17472.00
2018-05-13T06:50:40.206Z,20224.00
2018-05-13T06:51:40.188Z,17184.00
2018-05-13T06:52:40.188Z,20288.00
2018-05-13T06:53:40.184Z,15000.00
2018-05-13T06:54:40.184Z,25344.00
2018-05-13T06:55:40.182Z,26048.00
2018-05-13T06:56:40.182Z,26496.00
2018-05-13T06:57:40.177Z,24160.00
2018-05-13T06:58:40.176Z,23840.00
2018-05-13T06:59:40.175Z,14612.00
2018-05-13T07:00:40.182Z,12428.00
2018-05-13T07:01:40.175Z,13584.00
2018-05-13T07:02:40.173Z,13936.00
2018-05-13T07:03:40.174Z,21408.00
2018-05-13T07:04:40.173Z,18048.00
2018-05-13T07:05:40.171Z,22688.00
2018-05-13T07:06:40.170Z,17024.00
2018-05-13T07:07:40.173Z,22976.00
2018-05-13T07:08:40.169Z,16616.00
2018-05-13T07:09:40.171Z,20416.00
2018-05-13T07:10:40.169Z,19680.00
2018-05-13T07:11:40.168Z,28512.00
2018-05-13T07:12:40.173Z,31328.00
2018-05-13T07:13:40.214Z,30624.00
2018-05-13T07:14:40.169Z,32736.00
2018-05-13T07:15:40.173Z,32608.00
2018-05-13T07:16:40.168Z,33824.00
2018-05-13T07:17:40.166Z,33440.00
2018-05-13T07:18:40.220Z,32384.00
2018-05-13T07:19:40.169Z,33216.00
2018-05-13T07:20:40.169Z,35424.00
2018-05-13T07:21:40.177Z,35712.00
2018-05-13T07:22:40.167Z,36608.00
2018-05-13T07:23:40.171Z,35328.00
2018-05-13T07:24:40.171Z,35584.00
2018-05-13T07:25:40.166Z,35168.00
2018-05-13T07:26:40.177Z,37664.00
2018-05-13T07:27:40.170Z,37856.00
2018-05-13T07:28:40.176Z,35808.00
2018-05-13T07:29:40.193Z,34528.00
2018-05-13T07:30:40.174Z,31936.00
2018-05-13T07:31:40.176Z,26144.00
2018-05-13T07:32:40.193Z,18464.00
2018-05-13T07:33:40.183Z,21152.00
2018-05-13T07:34:40.183Z,21248.00
2018-05-13T07:35:40.224Z,20736.00
2018-05-13T07:36:40.187Z,20192.00
2018-05-13T07:37:40.199Z,19936.00
2018-05-13T07:38:40.188Z,20928.00
2018-05-13T07:39:40.190Z,21664.00
2018-05-13T07:40:40.195Z,22688.00
2018-05-13T07:41:40.214Z,31136.00
2018-05-13T07:42:40.200Z,37408.00
2018-05-13T07:43:40.205Z,38976.00
2018-05-13T07:44:40.212Z,59296.00
2018-05-13T07:45:40.209Z,54432.00
2018-05-13T07:46:40.209Z,42016.00
2018-05-13T07:47:40.216Z,41952.00
2018-05-13T07:48:40.224Z,38464.00
2018-05-13T07:49:40.225Z,40864.00
2018-05-13T07:50:40.232Z,41024.00
2018-05-13T07:51:40.230Z,42464.00
2018-05-13T07:52:40.238Z,42176.00
2018-05-13T07:53:40.238Z,43680.00
2018-05-13T07:54:40.255Z,42176.00
2018-05-13T07:55:40.297Z,44288.00
2018-05-13T07:56:40.245Z,44352.00
2018-05-13T07:57:40.260Z,44992.00
2018-05-13T07:58:40.252Z,45056.00
2018-05-13T07:59:40.264Z,45536.00
2018-05-13T08:00:40.262Z,46144.00
2018-05-13T08:01:41.150Z,41312.00
2018-05-13T08:02:40.276Z,48608.00
2018-05-13T08:03:40.274Z,49696.00
2018-05-13T08:04:40.282Z,49984.00
2018-05-13T08:05:40.298Z,48576.00
2018-05-13T08:06:40.302Z,48544.00
2018-05-13T08:07:40.287Z,45504.00
2018-05-13T08:08:40.293Z,44320.00
2018-05-13T08:09:40.294Z,41888.00
2018-05-13T08:10:40.316Z,42912.00
2018-05-13T08:11:40.319Z,39136.00
2018-05-13T08:12:40.312Z,39744.00
2018-05-13T08:13:40.317Z,40416.00
2018-05-13T08:14:40.319Z,40032.00
2018-05-13T08:15:40.325Z,40672.00
2018-05-13T08:16:42.137Z,40864.00
2018-05-13T08:17:40.332Z,42912.00
2018-05-13T08:18:40.342Z,44960.00
2018-05-13T08:19:40.353Z,42528.00
2018-05-13T08:20:40.361Z,41568.00
2018-05-13T08:21:40.353Z,41856.00
2018-05-13T08:22:40.356Z,34176.00
2018-05-13T08:23:40.362Z,37568.00
2018-05-13T08:24:40.369Z,42816.00
2018-05-13T08:25:40.371Z,42560.00
2018-05-13T08:26:40.379Z,42336.00
2018-05-13T08:27:40.384Z,44992.00
2018-05-13T08:28:40.384Z,33664.00
2018-05-13T08:29:40.389Z,48064.00
2018-05-13T08:30:40.399Z,47200.00
2018-05-13T08:31:40.425Z,50784.00
2018-05-13T08:32:40.405Z,49888.00
2018-05-13T08:33:40.405Z,49376.00
2018-05-13T08:34:40.414Z,49888.00
2018-05-13T08:35:40.417Z,50880.00
2018-05-13T08:36:40.428Z,50592.00
2018-05-13T08:37:40.431Z,48480.00
2018-05-13T08:38:40.437Z,44160.00
2018-05-13T08:39:40.436Z,40928.00
2018-05-13T08:40:40.450Z,31168.00
2018-05-13T08:41:40.451Z,28928.00
2018-05-13T08:42:40.454Z,29792.00
2018-05-13T08:43:40.459Z,28896.00
2018-05-13T08:44:40.501Z,32256.00
2018-05-13T08:45:40.465Z,37664.00
2018-05-13T08:46:40.536Z,50592.00
2018-05-13T08:47:40.477Z,51840.00
2018-05-13T08:48:40.484Z,47232.00
2018-05-13T08:49:40.491Z,44800.00
2018-05-13T08:50:40.501Z,45440.00
2018-05-13T08:51:40.505Z,47968.00
2018-05-13T08:52:40.517Z,46784.00
2018-05-13T08:53:40.520Z,47264.00
2018-05-13T08:54:40.518Z,44480.00
2018-05-13T08:55:40.528Z,46464.00
2018-05-13T08:56:40.533Z,52032.00
2018-05-13T08:57:40.538Z,55456.00
2018-05-13T08:58:40.547Z,58496.00
2018-05-13T08:59:40.567Z,58880.00
2018-05-13T09:00:40.558Z,58400.00
2018-05-13T09:01:40.564Z,59296.00
2018-05-13T09:02:40.562Z,59136.00
2018-05-13T09:03:40.584Z,61248.00
2018-05-13T09:04:40.619Z,62272.00
2018-05-13T09:05:40.586Z,62208.00
2018-05-13T09:06:40.596Z,61088.00
2018-05-13T09:07:40.602Z,61664.00
2018-05-13T09:08:40.601Z,63680.00
2018-05-13T09:09:40.610Z,62208.00
2018-05-13T09:10:40.619Z,64256.00
2018-05-13T09:11:40.655Z,63552.00
2018-05-13T09:12:40.634Z,58400.00
2018-05-13T09:13:40.648Z,28416.00
2018-05-13T09:14:40.647Z,42208.00
2018-05-13T09:15:41.212Z,27328.00
2018-05-13T09:16:40.670Z,26880.00
2018-05-13T09:17:40.672Z,23872.00
2018-05-13T09:18:40.681Z,31808.00
2018-05-13T09:19:40.727Z,44384.00
2018-05-13T09:20:40.757Z,32544.00
2018-05-13T09:21:40.701Z,21696.00
2018-05-13T09:22:40.705Z,22368.00
2018-05-13T09:23:40.714Z,21760.00
2018-05-13T09:24:40.720Z,34048.00
2018-05-13T09:25:40.724Z,62752.00
2018-05-13T09:26:40.817Z,63776.00
2018-05-13T09:27:40.737Z,64128.00
2018-05-13T09:28:40.755Z,63392.00
2018-05-13T09:29:40.745Z,64640.00
2018-05-13T09:30:40.754Z,66016.00
2018-05-13T09:31:40.761Z,64512.00
2018-05-13T09:32:40.769Z,63968.00
2018-05-13T09:33:40.773Z,64512.00
2018-05-13T09:34:40.783Z,66144.00
2018-05-13T09:35:40.785Z,67424.00
2018-05-13T09:36:40.795Z,68960.00
2018-05-13T09:37:40.804Z,70464.00
2018-05-13T09:38:40.811Z,69824.00
2018-05-13T09:39:40.821Z,68192.00
2018-05-13T09:40:40.834Z,65504.00
2018-05-13T09:41:40.836Z,73728.00
2018-05-13T09:42:40.839Z,65216.00
2018-05-13T09:43:40.855Z,69056.00
2018-05-13T09:44:40.856Z,70592.00
2018-05-13T09:45:40.864Z,70336.00
2018-05-13T09:46:40.869Z,71072.00
2018-05-13T09:47:40.876Z,71776.00
2018-05-13T09:48:40.893Z,61024.00
2018-05-13T09:49:40.894Z,60640.00
2018-05-13T09:50:40.899Z,55456.00
2018-05-13T09:51:40.913Z,48480.00
2018-05-13T09:52:40.920Z,42560.00
2018-05-13T09:53:40.922Z,44544.00
2018-05-13T09:54:40.945Z,44736.00
2018-05-13T09:55:40.939Z,53888.00
2018-05-13T09:56:40.947Z,70624.00
2018-05-13T09:57:40.999Z,81920.00
2018-05-13T09:58:40.964Z,83424.00
2018-05-13T09:59:40.976Z,81216.00
2018-05-13T10:00:40.984Z,61600.00
2018-05-13T10:01:40.989Z,75072.00
2018-05-13T10:02:40.998Z,79808.00
2018-05-13T10:03:41.010Z,82560.00
2018-05-13T10:04:41.016Z,79104.00
2018-05-13T10:05:41.024Z,81088.00
2018-05-13T10:06:41.032Z,73856.00
2018-05-13T10:07:41.035Z,71360.00
2018-05-13T10:08:41.055Z,64736.00
2018-05-13T10:09:41.056Z,61664.00
2018-05-13T10:10:41.089Z,71488.00
2018-05-13T10:11:41.072Z,65920.00
2018-05-13T10:12:41.077Z,70080.00
2018-05-13T10:13:41.735Z,66848.00
2018-05-13T10:14:41.105Z,53248.00
2018-05-13T10:15:41.129Z,29760.00
2018-05-13T10:16:41.144Z,46208.00
2018-05-13T10:17:41.137Z,55072.00
2018-05-13T10:18:42.609Z,69856.00
2018-05-13T10:19:41.169Z,75744.00
2018-05-13T10:20:41.165Z,72800.00
2018-05-13T10:21:42.736Z,58912.00
2018-05-13T10:22:41.180Z,67072.00
2018-05-13T10:23:41.181Z,72352.00
2018-05-13T10:24:41.175Z,85344.00
2018-05-13T10:25:41.186Z,85280.00
2018-05-13T10:26:41.229Z,75776.00
2018-05-13T10:27:41.208Z,76000.00
2018-05-13T10:28:41.209Z,74688.00
2018-05-13T10:29:41.217Z,70432.00
2018-05-13T10:30:41.281Z,74816.00
2018-05-13T10:31:41.240Z,78464.00
2018-05-13T10:32:41.270Z,81536.00
2018-05-13T10:33:41.252Z,82944.00
2018-05-13T10:34:41.264Z,80448.00
2018-05-13T10:35:41.280Z,77600.00
2018-05-13T10:36:41.287Z,46240.00
2018-05-13T10:37:41.301Z,80704.00
2018-05-13T10:38:41.294Z,45088.00
2018-05-13T10:39:41.306Z,65888.00
2018-05-13T10:40:41.316Z,76448.00
2018-05-13T10:41:41.337Z,78464.00
2018-05-13T10:42:42.255Z,71744.00
2018-05-13T10:43:41.351Z,65056.00
2018-05-13T10:44:41.379Z,73312.00
2018-05-13T10:45:41.371Z,72736.00
2018-05-13T10:46:41.386Z,80128.00
2018-05-13T10:47:41.398Z,74688.00
2018-05-13T10:48:41.405Z,76672.00
2018-05-13T10:49:41.396Z,72320.00
2018-05-13T10:50:41.408Z,85216.00
2018-05-13T10:51:41.420Z,83840.00
2018-05-13T10:52:41.429Z,79712.00
2018-05-13T10:53:41.435Z,74976.00
2018-05-13T10:54:41.449Z,72480.00
2018-05-13T10:55:48.260Z,68224.00
2018-05-13T10:56:41.505Z,36128.00
2018-05-13T10:57:41.533Z,49984.00
2018-05-13T10:58:41.483Z,79552.00
2018-05-13T10:59:41.537Z,76000.00
2018-05-13T11:00:41.514Z,72864.00
2018-05-13T11:01:41.534Z,56992.00
2018-05-13T11:02:41.554Z,38208.00
2018-05-13T11:03:41.529Z,79840.00
2018-05-13T11:04:41.571Z,81280.00
2018-05-13T11:05:41.545Z,79168.00
2018-05-13T11:06:41.564Z,42624.00
2018-05-13T11:07:41.566Z,46240.00
2018-05-13T11:08:41.580Z,65088.00
2018-05-13T11:09:41.584Z,67136.00
2018-05-13T11:10:41.595Z,36672.00
2018-05-13T11:11:41.613Z,68320.00
2018-05-13T11:12:41.616Z,33440.00
2018-05-13T11:13:41.622Z,35616.00
2018-05-13T11:14:41.632Z,31744.00
2018-05-13T11:15:41.637Z,28640.00
2018-05-13T11:16:41.661Z,26176.00
2018-05-13T11:17:41.658Z,27424.00
2018-05-13T11:18:41.671Z,30624.00
2018-05-13T11:19:41.671Z,77024.00
2018-05-13T11:20:41.706Z,79552.00
2018-05-13T11:21:41.703Z,75200.00
2018-05-13T11:22:41.703Z,75840.00
2018-05-13T11:23:41.720Z,76224.00
2018-05-13T11:24:41.712Z,72352.00
2018-05-13T11:25:41.719Z,77888.00
2018-05-13T11:26:41.773Z,76704.00
2018-05-13T11:27:41.738Z,74272.00
2018-05-13T11:28:41.749Z,69312.00
2018-05-13T11:29:41.764Z,67584.00
2018-05-13T11:30:41.757Z,34880.00
2018-05-13T11:31:41.770Z,34368.00
2018-05-13T11:32:41.782Z,31904.00
2018-05-13T11:33:41.866Z,31936.00
2018-05-13T11:34:41.797Z,33408.00
2018-05-13T11:35:41.809Z,35872.00
2018-05-13T11:36:41.820Z,36000.00
2018-05-13T11:37:42.788Z,36448.00
2018-05-13T11:38:41.831Z,36800.00
2018-05-13T11:39:41.841Z,36640.00
2018-05-13T11:40:41.846Z,36832.00
2018-05-13T11:41:41.851Z,32544.00
2018-05-13T11:42:41.858Z,36096.00
2018-05-13T11:43:41.867Z,28256.00
2018-05-13T11:44:41.872Z,26240.00
2018-05-13T11:45:41.879Z,26624.00
2018-05-13T11:46:41.890Z,24480.00
2018-05-13T11:47:41.894Z,23168.00
2018-05-13T11:48:41.900Z,23840.00
2018-05-13T11:49:41.909Z,26944.00
2018-05-13T11:50:41.912Z,26784.00
2018-05-13T11:51:41.924Z,32256.00
2018-05-13T11:52:41.934Z,62272.00
2018-05-13T11:53:41.936Z,84032.00
2018-05-13T11:54:41.949Z,82976.00
2018-05-13T11:55:41.952Z,73120.00
2018-05-13T11:56:41.962Z,59680.00
2018-05-13T11:57:41.960Z,68512.00
2018-05-13T11:58:41.977Z,64768.00
2018-05-13T11:59:41.989Z,68544.00
2018-05-13T12:00:41.983Z,68832.00
2018-05-13T12:01:41.995Z,64000.00
2018-05-13T12:02:41.997Z,62976.00
2018-05-13T12:03:42.013Z,34688.00
2018-05-13T12:04:42.019Z,38144.00
2018-05-13T12:05:42.024Z,48480.00
2018-05-13T12:06:42.026Z,57472.00
2018-05-13T12:07:42.033Z,66880.00
2018-05-13T12:08:42.040Z,65952.00
2018-05-13T12:09:42.047Z,63872.00
2018-05-13T12:10:42.052Z,62656.00
2018-05-13T12:11:42.097Z,65472.00
2018-05-13T12:12:42.077Z,62016.00
2018-05-13T12:13:42.079Z,70272.00
2018-05-13T12:14:42.082Z,71936.00
2018-05-13T12:15:42.090Z,67808.00
2018-05-13T12:16:42.109Z,49600.00
2018-05-13T12:17:42.103Z,35232.00
2018-05-13T12:18:42.111Z,29760.00
2018-05-13T12:19:42.118Z,25280.00
2018-05-13T12:20:42.127Z,23456.00
2018-05-13T12:21:42.135Z,23360.00
2018-05-13T12:22:42.142Z,25024.00
2018-05-13T12:23:42.150Z,29504.00
2018-05-13T12:24:42.154Z,32800.00
2018-05-13T12:25:42.170Z,39296.00
2018-05-13T12:26:42.170Z,44704.00
2018-05-13T12:27:42.177Z,81920.00
2018-05-13T12:28:42.184Z,49696.00
2018-05-13T12:29:42.193Z,70560.00
2018-05-13T12:30:42.217Z,68192.00
2018-05-13T12:31:42.227Z,67104.00
2018-05-13T12:32:42.207Z,67008.00
2018-05-13T12:33:42.269Z,69856.00
2018-05-13T12:34:42.219Z,72416.00
2018-05-13T12:35:42.229Z,69248.00
2018-05-13T12:36:42.236Z,65664.00
2018-05-13T12:37:42.241Z,65728.00
2018-05-13T12:38:42.254Z,66048.00
2018-05-13T12:39:42.256Z,66880.00
2018-05-13T12:40:42.258Z,66880.00
2018-05-13T12:41:42.268Z,60736.00
2018-05-13T12:42:42.275Z,70400.00
2018-05-13T12:43:42.280Z,68320.00
2018-05-13T12:44:42.284Z,66400.00
2018-05-13T12:45:42.287Z,66848.00
2018-05-13T12:46:46.837Z,61824.00
2018-05-13T12:47:42.305Z,58688.00
2018-05-13T12:48:42.318Z,38848.00
2018-05-13T12:49:43.841Z,54688.00
2018-05-13T12:50:42.331Z,48672.00
2018-05-13T12:51:42.332Z,42464.00
2018-05-13T12:52:42.331Z,33152.00
2018-05-13T12:53:42.336Z,31904.00
2018-05-13T12:54:42.346Z,34368.00
2018-05-13T12:55:43.289Z,50688.00
2018-05-13T12:56:42.358Z,45568.00
2018-05-13T12:57:42.367Z,63328.00
2018-05-13T12:58:42.366Z,65120.00
2018-05-13T12:59:42.371Z,62112.00
2018-05-13T13:00:42.378Z,58880.00
2018-05-13T13:01:42.382Z,54336.00
2018-05-13T13:02:42.392Z,32128.00
2018-05-13T13:03:42.456Z,26848.00
2018-05-13T13:04:42.413Z,19296.00
2018-05-13T13:05:42.415Z,13292.00
2018-05-13T13:06:42.415Z,10072.00
2018-05-13T13:07:42.475Z,7988.00
2018-05-13T13:08:42.424Z,6440.00
2018-05-13T13:09:42.429Z,5124.00
2018-05-13T13:10:42.431Z,4368.00
2018-05-13T13:11:42.434Z,4028.00
2018-05-13T13:12:42.437Z,3808.00
2018-05-13T13:13:42.454Z,3552.00
2018-05-13T13:14:42.447Z,3196.00
2018-05-13T13:15:42.450Z,2664.00
2018-05-13T13:16:42.466Z,2000.00
2018-05-13T13:17:42.452Z,1432.00
2018-05-13T13:18:42.495Z,1136.00
2018-05-13T13:19:42.464Z,1052.00
2018-05-13T13:20:42.463Z,1152.00
2018-05-13T13:21:42.468Z,1452.00
2018-05-13T13:22:42.468Z,1516.00
2018-05-13T13:23:49.372Z,1804.00
2018-05-13T13:24:42.499Z,1772.00
2018-05-13T13:25:42.471Z,1860.00
2018-05-13T13:26:42.472Z,2100.00
2018-05-13T13:27:42.475Z,2648.00
2018-05-13T13:31:57.544Z,3176.00
2018-05-13T13:32:48.109Z,3148.00
2018-05-13T13:40:53.387Z,6392.00
2018-05-13T13:41:53.354Z,6780.00
2018-05-13T13:43:46.973Z,7104.00
2018-05-13T13:44:46.933Z,7080.00
2018-05-13T13:46:40.750Z,7556.00
2018-05-13T13:47:40.738Z,7788.00
2018-05-13T13:48:40.753Z,7812.00
2018-05-13T13:49:40.745Z,7712.00
2018-05-13T13:50:40.727Z,7540.00
2018-05-13T13:51:40.724Z,7480.00
2018-05-13T13:52:40.734Z,7620.00
2018-05-13T13:53:40.712Z,7992.00
2018-05-13T13:54:40.726Z,8356.00
2018-05-13T13:55:40.710Z,8732.00
2018-05-13T13:56:40.707Z,9124.00
2018-05-13T13:57:40.701Z,9372.00
2018-05-13T13:58:40.694Z,9468.00
2018-05-13T13:59:40.705Z,9540.00
2018-05-13T14:00:40.687Z,9892.00
2018-05-13T14:01:40.684Z,11736.00
2018-05-13T14:02:40.681Z,8792.00
2018-05-13T14:03:40.676Z,6880.00
2018-05-13T14:04:40.674Z,5356.00
2018-05-13T14:05:40.672Z,4404.00
2018-05-13T14:06:40.661Z,3816.00
2018-05-13T14:07:40.676Z,3332.00
2018-05-13T14:08:40.654Z,2872.00
2018-05-13T14:09:40.670Z,2476.00
2018-05-13T14:10:40.647Z,2232.00
2018-05-13T14:11:40.646Z,2028.00
2018-05-13T14:12:40.646Z,1844.00
2018-05-13T14:13:40.635Z,1668.00
2018-05-13T14:14:40.632Z,1512.00
2018-05-13T14:15:40.627Z,1368.00
2018-05-13T14:16:40.627Z,1240.00
2018-05-13T14:17:40.622Z,1144.00
2018-05-13T14:18:40.617Z,1068.00
2018-05-13T14:19:40.610Z,1012.00
2018-05-13T14:20:41.922Z,968.00